Latest Coastal Weather Observations for Cape Wessel

IDD60701

Issued at 9:41 pm CST Sunday 10 May 2026 (issued every 10 minutes, with the page automatically refreshed every 10 minutes)

About coastal observations | Map of coastal stations | Coastal observations for NT | Marine services | Other Formats
Station Details ID: 200786 Name: CAPE WESSEL Lat: -11.00 Lon: 136.76 Height: 18.0 m
Data from the previous 72 hours. | See also: Recent months at Cape Wessel
Date/Time
CST
Wind Sea
Height
m
Swell Vis
km
Cloud Weather Temp
°C
Press
MSL
hPa
Rain since
9am
mm
Dir  Spd
kts
Gust
kts
Height
m
Period
s
Dir
10/09:30pm SE 19 23 - - - - - - - 27.7 1012.7 0.0
10/09:00pm SE 19 24 - - - - - - - 27.5 1012.6 0.0
10/08:30pm SE 19 23 - - - - - - - 27.6 1012.4 0.0
10/08:00pm SE 17 21 - - - - - - - 27.5 1012.0 0.0
10/07:30pm ESE 19 22 - - - - - - - 27.7 1011.6 0.0
10/07:00pm SE 19 24 - - - - - - - 27.7 1011.3 0.0
10/06:30pm ESE 19 24 - - - - - - - 27.7 1010.6 0.0
10/06:00pm ESE 20 25 - - - - - - - 27.7 1010.4 0.0
10/05:30pm ESE 21 27 - - - - - - - 28.0 1010.2 0.0
10/05:00pm SE 23 28 - - - - - - - 28.3 1009.8 0.0
10/04:30pm SE 21 26 - - - - - - - 28.2 1009.7 0.0
10/04:00pm ESE 20 26 - - - - - - - 29.0 1009.4 0.0
10/03:30pm ESE 22 26 - - - - - - - 28.9 1009.4 0.0
10/03:00pm ESE 21 26 - - - - - - - 28.6 1009.5 0.0
10/02:30pm ESE 20 26 - - - - - - - 29.3 1009.7 0.0
10/02:00pm ESE 20 26 - - - - - - - 29.4 1009.8 0.0
10/01:30pm ESE 21 28 - - - - - - - 29.7 1010.0 0.0
10/01:00pm ESE 22 29 - - - - - - - 29.7 1010.3 0.0
10/12:30pm ESE 25 31 - - - - - - - 29.6 1010.8 0.0
10/12:00pm ESE 23 28 - - - - - - - 29.8 1011.3 0.0
10/11:30am ESE 22 29 - - - - - - - 29.7 1011.5 0.0
10/11:00am E 23 30 - - - - - - - 29.9 1012.1 0.0
10/10:30am E 26 34 - - - - - - - 29.8 1012.0 0.0
10/10:00am ESE 25 30 - - - - - - - 29.1 1012.0 0.0
10/09:30am ESE 21 29 - - - - - - - 29.2 1011.9 0.0
10/09:00am ESE 24 30 - - - - - - - 28.5 1011.6 98.2
10/08:30am ESE 24 33 - - - - - - - 27.0 1011.2 98.2
10/08:23am E 22 33 - - - - - - - 27.5 1011.0 98.2
10/08:00am ESE 20 24 - - - - - - - 27.0 1011.0 98.2
10/07:30am ESE 19 24 - - - - - - - 26.5 1011.0 98.0
10/07:00am ESE 20 24 - - - - - - - 27.1 1010.6 95.8
10/06:30am ESE 19 25 - - - - - - - 26.7 1010.2 95.8
10/06:00am ESE 19 24 - - - - - - Recent precip. 26.5 1009.5 95.8
10/05:30am ESE 20 24 - - - - - - - 26.1 1009.6 95.8
10/05:00am ESE 17 27 - - - - - - - 26.2 1009.8 95.6
10/04:58am ESE 17 23 - - - - - - - 26.5 1009.7 95.6
10/04:30am SE 20 27 - - - - - - - 26.8 1009.3 94.8
10/04:00am SE 18 24 - - - - - - - 27.1 1009.1 94.6
10/03:30am SE 19 23 - - - - - - - 26.9 1008.9 94.6
10/03:00am SE 20 25 - - - - - - Recent precip. 26.7 1008.6 94.6
10/02:30am SE 20 24 - - - - - - - 26.4 1009.5 94.6
10/02:00am SE 20 25 - - - - - - - 26.5 1009.7 94.2
10/01:30am SE 20 26 - - - - - - - 26.5 1010.1 93.6
10/01:00am ESE 20 26 - - - - - - - 26.7 1010.4 93.4
10/12:30am ESE 24 30 - - - - - - - 26.6 1010.2 93.2
10/12:00am SE 24 30 - - - - - - Thunderstorm 26.4 1010.3 93.2
 
Date/Time
CST
Wind Sea
Height
m
Swell Vis
km
Cloud Weather Temp
°C
Press
MSL
hPa
Rain since
9am
mm
Dir  Spd
kts
Gust
kts
Height
m
Period
s
Dir
09/11:42pm SSE 25 34 - - - - - - - 26.4 1009.8 93.2
09/11:30pm S 21 31 - - - - - - - 25.4 1009.9 92.4
09/11:21pm S 29 38 - - - - - - - 24.9 1009.7 87.4
09/11:16pm SSE 29 36 - - - - - - - 24.4 1009.4 83.4
09/11:07pm SE 24 35 - - - - - - - 24.9 1010.8 74.4
09/11:00pm SE 27 41 - - - - - - - 25.3 1011.0 65.4
09/10:56pm SE 28 41 - - - - - - - 25.2 1010.6 61.4
09/10:50pm SE 28 36 - - - - - - - 25.2 1010.9 56.8
09/10:41pm SE 28 35 - - - - - - - 25.2 1010.9 48.6
09/10:31pm SE 27 35 - - - - - - - 25.2 1010.9 42.4
09/10:30pm SE 27 35 - - - - - - - 25.0 1010.9 41.8
09/10:28pm SE 26 35 - - - - - - - 25.0 1010.8 41.0
09/10:22pm SE 24 34 - - - - - - - 24.9 1011.2 40.2
09/10:18pm ESE 25 32 - - - - - - - 24.3 1011.2 39.0
09/10:16pm ESE 25 32 - - - - - - - 24.4 1011.3 38.2
09/10:03pm ESE 25 32 - - - - - - - 25.5 1011.2 34.0
09/10:00pm ESE 25 32 - - - - - - - 25.7 1011.3 33.6
09/09:40pm ESE 21 31 - - - - - - - 25.8 1011.1 30.6
09/09:39pm ESE 21 29 - - - - - - - 25.9 1011.1 30.6
09/09:30pm ESE 16 19 - - - - - - - 26.2 1011.1 30.4
09/09:00pm SE 16 21 - - - - - - Thunderstorm 26.0 1010.9 29.4
09/08:38pm ESE 19 24 - - - - - - - 25.7 1011.0 29.2
09/08:30pm ESE 21 26 - - - - - - - 25.9 1010.9 29.2
09/08:28pm ESE 22 26 - - - - - - - 25.8 1010.9 29.2
09/08:00pm ESE 20 24 - - - - - - - 25.7 1010.9 29.2
09/07:30pm E 17 25 - - - - - - - 25.5 1010.6 26.2
09/07:29pm ENE 17 25 - - - - - - - 25.5 1010.6 25.6
09/07:00pm SSE 10 14 - - - - - - - 26.1 1009.8 11.2
09/06:30pm ESE 14 19 - - - - - - - 25.8 1010.0 10.4
09/06:00pm SSE 13 17 - - - - - - Recent precip. 25.7 1009.3 7.8
09/05:30pm SE 16 19 - - - - - - - 25.6 1009.2 7.6
09/05:00pm ESE 21 27 - - - - - - - 25.9 1009.2 5.6
09/04:53pm ESE 16 26 - - - - - - - 26.0 1009.2 4.0
09/04:30pm SE 16 19 - - - - - - - 27.6 1008.8 0.2
09/04:00pm SE 13 16 - - - - - - - 28.8 1008.5 0.0
09/03:30pm ESE 15 21 - - - - - - - 27.4 1008.5 0.0
09/03:00pm SE 15 19 - - - - - - - 31.3 1008.5 0.0
09/02:30pm SE 14 17 - - - - - - - 31.9 1008.6 0.0
09/02:00pm SE 15 18 - - - - - - - 31.8 1008.9 0.0
09/01:30pm SE 15 19 - - - - - - - 31.6 1009.2 0.0
09/01:00pm SE 18 21 - - - - - - - 32.1 1009.7 0.0
09/12:30pm ESE 17 22 - - - - - - - 32.1 1010.1 0.0
09/12:00pm SE 15 19 - - - - - - - 32.1 1010.5 0.0
09/11:30am SE 15 19 - - - - - - - 32.1 1011.0 0.0
09/11:00am SE 17 22 - - - - - - - 30.7 1011.4 0.0
09/10:30am SE 17 21 - - - - - - - 30.6 1011.5 0.0
09/10:00am ESE 17 21 - - - - - - - 31.1 1011.5 0.0
09/09:30am SE 15 18 - - - - - - - 30.4 1011.6 0.0
09/09:00am SE 16 20 - - - - - - - 30.5 1011.5 0.0
09/08:30am SE 16 21 - - - - - - - 29.2 1011.4 0.0
09/08:00am SE 16 21 - - - - - - - 28.9 1010.9 0.0
09/07:30am SE 17 21 - - - - - - - 28.2 1010.7 0.0
09/07:00am SE 17 22 - - - - - - - 27.5 1010.3 0.0
09/06:30am SE 18 23 - - - - - - - 27.5 1009.9 0.0
09/06:00am SE 17 21 - - - - - - - 27.1 1009.6 0.0
09/05:30am SE 17 25 - - - - - - - 27.2 1009.6 0.0
09/05:00am SE 18 22 - - - - - - - 27.4 1009.6 0.0
09/04:30am SE 17 21 - - - - - - - 27.4 1009.7 0.0
09/04:00am SE 17 21 - - - - - - - 27.2 1009.8 0.0
09/03:30am SE 16 21 - - - - - - - 27.1 1010.0 0.0
09/03:00am SE 15 21 - - - - - - - 27.3 1010.2 0.0
09/02:30am SE 16 21 - - - - - - - 27.1 1010.3 0.0
09/02:00am SE 18 22 - - - - - - - 27.3 1010.5 0.0
09/01:30am SE 17 21 - - - - - - - 27.3 1010.8 0.0
09/01:00am SE 17 22 - - - - - - - 27.3 1011.0 0.0
09/12:30am SE 17 22 - - - - - - - 27.3 1011.2 0.0
09/12:00am SE 16 21 - - - - - - - 27.5 1011.4 0.0
 
Date/Time
CST
Wind Sea
Height
m
Swell Vis
km
Cloud Weather Temp
°C
Press
MSL
hPa
Rain since
9am
mm
Dir  Spd
kts
Gust
kts
Height
m
Period
s
Dir
08/11:30pm SE 18 23 - - - - - - - 27.6 1011.5 0.0
08/11:00pm SE 18 22 - - - - - - - 27.6 1011.6 0.0
08/10:30pm SE 19 22 - - - - - - - 27.6 1011.6 0.0
08/10:00pm SE 17 22 - - - - - - - 27.5 1011.7 0.0
08/09:30pm SE 17 21 - - - - - - - 27.6 1011.5 0.0
08/09:00pm SE 17 20 - - - - - - - 27.6 1011.5 0.0
08/08:30pm SE 15 19 - - - - - - - 27.5 1011.3 0.0
08/08:00pm SE 16 20 - - - - - - - 27.7 1010.9 0.0
08/07:30pm SE 16 21 - - - - - - - 27.8 1010.6 0.0
08/07:00pm ESE 14 18 - - - - - - - 27.9 1010.3 0.0
08/06:30pm ESE 17 22 - - - - - - - 27.7 1009.9 0.0
08/06:00pm ESE 15 19 - - - - - - - 28.0 1009.7 0.0
08/05:30pm ESE 17 20 - - - - - - - 28.3 1009.4 0.0
08/05:00pm ESE 16 20 - - - - - - - 28.4 1009.2 0.0
08/04:30pm ESE 14 17 - - - - - - - 29.4 1008.9 0.0
08/04:00pm E 16 21 - - - - - - - 28.5 1008.7 0.0
08/03:30pm SE 19 23 - - - - - - - 30.3 1008.5 0.0
08/03:00pm SE 19 23 - - - - - - - 31.2 1008.4 0.0
08/02:30pm SE 18 22 - - - - - - - 31.5 1008.7 0.0
08/02:00pm SE 19 23 - - - - - - - 31.5 1009.0 0.0
08/01:30pm ESE 17 21 - - - - - - - 30.7 1009.1 0.0
08/01:00pm ESE 16 21 - - - - - - - 31.8 1009.3 0.0
08/12:30pm SE 17 23 - - - - - - - 31.8 1009.8 0.0
08/12:00pm SE 17 21 - - - - - - - 31.7 1010.2 0.0
08/11:30am ESE 17 21 - - - - - - - 31.0 1010.6 0.0
08/11:00am SE 18 22 - - - - - - - 31.2 1010.9 0.0
08/10:30am SE 17 21 - - - - - - - 30.5 1011.2 0.0
08/10:00am SE 16 21 - - - - - - - 30.8 1011.4 0.0
08/09:30am SE 17 21 - - - - - - - 30.0 1011.5 0.0
08/09:00am SE 17 21 - - - - - - - 29.7 1011.5 0.0
08/08:30am SE 18 21 - - - - - - - 29.0 1011.5 0.0
08/08:00am SE 17 21 - - - - - - - 28.0 1011.2 0.0
08/07:30am SE 17 22 - - - - - - - 27.7 1011.2 0.0
08/07:00am SE 15 21 - - - - - - - 27.1 1011.1 0.0
08/06:30am SE 17 20 - - - - - - - 26.7 1010.8 0.0
08/06:00am SE 17 20 - - - - - - - 26.8 1010.7 0.0
08/05:30am SE 17 22 - - - - - - - 26.8 1010.6 0.0
08/05:00am SE 18 22 - - - - - - - 26.9 1010.4 0.0
08/04:30am SE 19 25 - - - - - - - 27.0 1010.2 0.0
08/04:00am SE 20 25 - - - - - - - 27.1 1010.2 0.0
08/03:30am SE 21 25 - - - - - - - 27.3 1010.1 0.0
08/03:00am SE 19 24 - - - - - - - 27.3 1010.4 0.0
08/02:30am SSE 20 26 - - - - - - - 26.4 1010.6 0.0
08/02:00am SE 18 24 - - - - - - - 27.1 1010.6 0.0
08/01:30am SE 18 23 - - - - - - - 27.3 1010.8 0.0
08/01:00am SE 19 24 - - - - - - - 27.3 1011.0 0.0
08/12:30am SE 18 22 - - - - - - - 27.5 1011.1 0.0
08/12:00am SE 18 21 - - - - - - - 27.5 1011.4 0.0
 
Date/Time
CST
Wind Sea
Height
m
Swell Vis
km
Cloud Weather Temp
°C
Press
MSL
hPa
Rain since
9am
mm
Dir  Spd
kts
Gust
kts
Height
m
Period
s
Dir
07/11:30pm SE 18 23 - - - - - - - 27.4 1011.5 0.0
07/11:00pm SE 17 22 - - - - - - - 27.5 1011.7 0.0
07/10:30pm SSE 17 22 - - - - - - - 27.5 1011.7 0.0
07/10:00pm SE 17 22 - - - - - - - 27.6 1011.9 0.0

Other formats

Comma delimited format used in spreadsheet applications
http://www.bom.gov.au/fwo/IDD60701/IDD60701.94147.axf

JavaScript Object Notation format (JSON) in row-major order
http://www.bom.gov.au/fwo/IDD60701/IDD60701.94147.json

Data quality

Most of these data are generated automatically and are frequently updated. Quality checks on data are not normally performed. It is possible for incorrect values to appear. Refer to information at About Latest Weather Observations and please check the disclaimer before using these data.